createdAt,value
2022-08-23T00:01:39.030Z,4.63
2022-08-23T00:03:42.064Z,3.23
2022-08-23T00:05:44.971Z,4.27
2022-08-23T00:07:46.544Z,5.63
2022-08-23T00:09:48.207Z,3.37
2022-08-23T00:11:52.852Z,4.63
2022-08-23T00:13:54.767Z,2.53
2022-08-23T00:15:56.387Z,5.10
2022-08-23T00:17:57.966Z,3.37
2022-08-23T00:19:59.515Z,4.20
2022-08-23T00:22:02.809Z,3.70
2022-08-23T00:24:05.886Z,3.77
2022-08-23T00:26:07.660Z,3.63
2022-08-23T00:28:14.718Z,2.93
2022-08-23T00:30:17.368Z,3.50
2022-08-23T00:32:22.577Z,3.50
2022-08-23T00:34:24.251Z,3.40
2022-08-23T00:36:25.800Z,4.20
2022-08-23T00:38:34.185Z,5.10
2022-08-23T00:40:36.795Z,3.40
2022-08-23T00:42:43.909Z,3.33
2022-08-23T00:44:45.570Z,3.43
2022-08-23T00:46:51.468Z,5.33
2022-08-23T00:48:54.265Z,5.10
2022-08-23T00:51:02.904Z,3.37
2022-08-23T00:53:09.932Z,5.00
2022-08-23T00:55:13.052Z,3.70
2022-08-23T00:57:16.835Z,4.00
2022-08-23T00:59:18.737Z,3.27
2022-08-23T01:01:20.352Z,3.90
2022-08-23T01:03:24.461Z,4.00
2022-08-23T01:05:33.003Z,4.20
2022-08-23T01:07:44.943Z,3.67
2022-08-23T01:09:48.545Z,4.63
2022-08-23T01:11:58.258Z,3.73
2022-08-23T01:14:06.175Z,4.10
2022-08-23T01:16:13.603Z,4.40
2022-08-23T01:18:17.819Z,4.77
2022-08-23T01:20:26.921Z,3.50
2022-08-23T01:22:36.312Z,6.17
2022-08-23T01:24:54.120Z,4.13
2022-08-23T01:27:01.927Z,4.80
2022-08-23T01:29:06.396Z,4.93
2022-08-23T01:31:08.958Z,3.83
2022-08-23T01:33:10.543Z,5.40
2022-08-23T01:35:12.814Z,4.20
2022-08-23T01:37:14.848Z,4.10
2022-08-23T01:39:16.408Z,3.40
2022-08-23T01:41:19.275Z,3.80
2022-08-23T01:43:22.109Z,3.47
2022-08-23T01:45:23.743Z,3.30
2022-08-23T01:47:25.459Z,3.33
2022-08-23T01:49:27.112Z,3.93
2022-08-23T01:51:28.664Z,3.33
2022-08-23T01:53:30.243Z,4.57
2022-08-23T01:55:31.956Z,3.20
2022-08-23T01:57:35.245Z,4.80
2022-08-23T01:59:37.198Z,3.00
2022-08-23T02:01:38.951Z,4.30
2022-08-23T02:03:40.643Z,5.70
2022-08-23T02:05:42.907Z,5.03
2022-08-23T02:07:44.768Z,5.73
2022-08-23T02:09:46.461Z,3.67
2022-08-23T02:11:49.003Z,3.80
2022-08-23T02:13:53.983Z,3.63
2022-08-23T02:15:58.496Z,5.20
2022-08-23T02:18:00.627Z,4.03
2022-08-23T02:20:03.363Z,4.53
2022-08-23T02:22:06.857Z,4.10
2022-08-23T02:24:11.184Z,3.10
2022-08-23T02:26:13.469Z,3.80
2022-08-23T02:28:15.090Z,6.50
2022-08-23T02:30:18.157Z,5.20
2022-08-23T02:32:19.978Z,5.20
2022-08-23T02:34:21.610Z,3.90
2022-08-23T02:36:23.255Z,4.10
2022-08-23T02:38:24.888Z,3.87
2022-08-23T02:40:26.498Z,4.73
2022-08-23T02:42:28.196Z,4.97
2022-08-23T02:44:29.904Z,6.60
2022-08-23T02:46:33.648Z,4.13
2022-08-23T02:48:35.988Z,3.20
2022-08-23T02:50:39.250Z,3.37
2022-08-23T02:52:40.800Z,6.43
2022-08-23T02:54:42.393Z,3.60
2022-08-23T02:56:44.009Z,3.50
2022-08-23T02:58:45.791Z,4.60
2022-08-23T03:00:50.762Z,6.20
2022-08-23T03:02:53.735Z,3.60
2022-08-23T03:04:55.535Z,4.13
2022-08-23T03:06:57.092Z,4.03
2022-08-23T03:08:58.920Z,5.10
2022-08-23T03:11:00.452Z,5.17
2022-08-23T03:13:09.603Z,5.73
2022-08-23T03:15:11.513Z,4.00
2022-08-23T03:17:13.158Z,9.23
2022-08-23T03:19:17.353Z,4.30
2022-08-23T03:21:19.926Z,4.90
2022-08-23T03:23:22.053Z,3.53
2022-08-23T03:25:24.843Z,5.10
2022-08-23T03:27:26.487Z,5.80
2022-08-23T03:29:28.057Z,3.80
2022-08-23T03:31:31.274Z,6.40
2022-08-23T03:33:33.009Z,7.10
2022-08-23T03:35:35.971Z,4.80
2022-08-23T03:37:37.540Z,4.00
2022-08-23T03:39:43.020Z,5.10
2022-08-23T03:41:44.609Z,4.00
2022-08-23T03:43:46.202Z,5.13
2022-08-23T03:45:48.397Z,4.20
2022-08-23T03:47:50.061Z,4.47
2022-08-23T03:49:51.691Z,4.80
2022-08-23T03:51:54.710Z,4.40
2022-08-23T03:53:56.333Z,5.00
2022-08-23T03:55:57.852Z,4.63
2022-08-23T03:57:59.722Z,5.57
2022-08-23T04:00:01.529Z,4.87
2022-08-23T04:02:03.780Z,6.83
2022-08-23T04:04:05.888Z,5.30
2022-08-23T04:06:07.508Z,5.10
2022-08-23T04:08:11.027Z,6.13
2022-08-23T04:10:12.589Z,4.67
2022-08-23T04:12:17.479Z,7.03
2022-08-23T04:14:19.526Z,5.10
2022-08-23T04:16:21.100Z,4.30
2022-08-23T04:18:22.905Z,4.00
2022-08-23T04:20:24.458Z,4.77
2022-08-23T04:22:26.049Z,4.57
2022-08-23T04:24:29.770Z,4.17
2022-08-23T04:26:31.758Z,5.40
2022-08-23T04:28:34.184Z,7.90
2022-08-23T04:30:35.784Z,6.83
2022-08-23T04:32:37.341Z,7.53
2022-08-23T04:34:40.277Z,6.23
2022-08-23T04:36:44.859Z,6.87
2022-08-23T04:38:53.496Z,4.80
2022-08-23T04:40:57.113Z,6.10
2022-08-23T04:42:58.657Z,6.33
2022-08-23T04:45:00.241Z,6.00
2022-08-23T04:47:02.022Z,5.27
2022-08-23T04:49:03.857Z,5.50
2022-08-23T04:51:05.592Z,6.93
2022-08-23T04:53:07.291Z,6.00
2022-08-23T04:55:09.206Z,8.80
2022-08-23T04:57:12.217Z,6.03
2022-08-23T04:59:13.775Z,6.30
2022-08-23T05:01:15.948Z,6.27
2022-08-23T05:03:17.579Z,8.10
2022-08-23T05:05:19.687Z,5.60
2022-08-23T05:07:21.278Z,6.17
2022-08-23T05:09:41.623Z,6.83
2022-08-23T05:11:43.189Z,5.77
2022-08-23T05:13:46.431Z,5.27
2022-08-23T05:15:50.498Z,6.10
2022-08-23T05:17:52.453Z,5.90
2022-08-23T05:19:54.075Z,5.37
2022-08-23T05:21:57.223Z,7.07
2022-08-23T05:24:00.346Z,6.07
2022-08-23T05:26:05.596Z,9.03
2022-08-23T05:28:07.186Z,5.73
2022-08-23T05:30:15.180Z,6.27
2022-08-23T05:32:17.150Z,5.60
2022-08-23T05:34:22.501Z,8.33
2022-08-23T05:36:24.733Z,9.57
2022-08-23T05:38:26.664Z,6.20
2022-08-23T05:40:28.644Z,8.60
2022-08-23T05:42:30.208Z,7.60
2022-08-23T05:44:36.221Z,6.93
2022-08-23T05:46:40.418Z,5.90
2022-08-23T05:48:47.331Z,7.00
2022-08-23T05:50:48.897Z,5.50
2022-08-23T05:52:51.215Z,12.30
2022-08-23T05:54:53.197Z,6.77
2022-08-23T05:56:54.822Z,6.70
2022-08-23T05:59:00.005Z,6.90
2022-08-23T06:01:01.820Z,5.37
2022-08-23T06:03:04.767Z,7.77
2022-08-23T06:05:07.467Z,5.87
2022-08-23T06:07:09.159Z,5.73
2022-08-23T06:09:12.803Z,6.40
2022-08-23T06:11:16.679Z,10.00
2022-08-23T06:13:18.300Z,7.03
2022-08-23T06:15:19.901Z,5.03
2022-08-23T06:17:21.485Z,6.07
2022-08-23T06:19:24.936Z,5.63
2022-08-23T06:21:27.008Z,9.20
2022-08-23T06:23:28.755Z,6.33
2022-08-23T06:25:30.415Z,3.90
2022-08-23T06:27:33.083Z,6.10
2022-08-23T06:29:34.695Z,14.30
2022-08-23T06:31:39.604Z,9.50
2022-08-23T06:33:41.993Z,8.63
2022-08-23T06:35:45.057Z,15.13
2022-08-23T06:37:46.670Z,7.87
2022-08-23T06:39:48.319Z,11.00
2022-08-23T06:41:50.469Z,41.17
2022-08-23T06:43:52.237Z,7.80
2022-08-23T06:45:55.099Z,10.70
2022-08-23T06:48:00.203Z,11.73
2022-08-23T06:50:02.008Z,21.80
2022-08-23T06:52:05.636Z,14.20
2022-08-23T06:54:10.341Z,8.90
2022-08-23T06:56:13.693Z,18.40
2022-08-23T06:58:15.314Z,14.60
2022-08-23T07:00:21.955Z,14.00
2022-08-23T07:02:24.176Z,16.27
2022-08-23T07:04:28.980Z,18.80
2022-08-23T07:06:30.700Z,16.33
2022-08-23T07:08:33.845Z,9.40
2022-08-23T07:10:35.488Z,9.93
2022-08-23T07:12:39.228Z,8.70
2022-08-23T07:14:41.348Z,5.80
2022-08-23T07:16:45.542Z,6.80
2022-08-23T07:18:47.766Z,5.60
2022-08-23T07:20:49.406Z,11.47
2022-08-23T07:22:51.026Z,7.70
2022-08-23T07:24:54.018Z,7.03
2022-08-23T07:26:55.884Z,10.70
2022-08-23T07:28:57.766Z,16.47
2022-08-23T07:31:11.349Z,7.70
2022-08-23T07:33:16.398Z,9.80
2022-08-23T07:35:18.272Z,6.70
2022-08-23T07:37:21.815Z,13.10
2022-08-23T07:39:23.780Z,6.37
2022-08-23T07:41:31.003Z,6.27
2022-08-23T07:43:35.022Z,4.30
2022-08-23T07:45:40.069Z,5.67
2022-08-23T07:47:48.232Z,7.27
2022-08-23T07:49:51.808Z,5.93
2022-08-23T07:51:53.501Z,5.17
2022-08-23T07:53:55.188Z,3.83
2022-08-23T07:55:57.248Z,5.30
2022-08-23T07:58:03.140Z,8.40
2022-08-23T08:00:06.128Z,4.40
2022-08-23T08:02:07.781Z,5.77
2022-08-23T08:04:09.628Z,10.00
2022-08-23T08:06:15.643Z,5.63
2022-08-23T08:08:17.309Z,4.70
2022-08-23T08:10:19.463Z,11.10
2022-08-23T08:12:21.066Z,7.30
2022-08-23T08:14:23.942Z,8.50
2022-08-23T08:16:27.462Z,5.73
2022-08-23T08:18:29.029Z,5.23
2022-08-23T08:20:30.653Z,8.20
2022-08-23T08:22:32.271Z,5.70
2022-08-23T08:24:33.913Z,5.53
2022-08-23T08:26:35.693Z,5.30
2022-08-23T08:28:38.303Z,6.33
2022-08-23T08:30:41.345Z,5.50
2022-08-23T08:32:47.341Z,4.87
2022-08-23T08:34:49.226Z,8.13
2022-08-23T08:36:52.764Z,5.30
2022-08-23T08:39:01.056Z,7.77
2022-08-23T08:41:12.921Z,4.90
2022-08-23T08:43:27.367Z,5.73
2022-08-23T08:45:37.605Z,7.40
2022-08-23T08:47:48.723Z,5.37
2022-08-23T08:49:58.248Z,4.90
2022-08-23T08:52:15.043Z,7.47
2022-08-23T08:54:21.544Z,4.70
2022-08-23T08:56:32.296Z,4.97
2022-08-23T08:58:43.219Z,5.53
2022-08-23T09:00:46.330Z,4.93
2022-08-23T09:02:50.423Z,6.27
2022-08-23T09:04:52.287Z,5.47
2022-08-23T09:07:09.206Z,4.43
2022-08-23T09:09:22.181Z,6.60
2022-08-23T09:11:36.526Z,5.30
2022-08-23T09:14:12.922Z,7.07
2022-08-23T09:16:28.830Z,7.40
2022-08-23T09:18:35.554Z,7.47
2022-08-23T09:20:38.326Z,5.93
2022-08-23T09:22:42.986Z,6.03
2022-08-23T09:24:44.651Z,5.83
2022-08-23T09:26:46.313Z,5.13
2022-08-23T09:28:50.914Z,5.43
2022-08-23T09:30:55.142Z,6.40
2022-08-23T09:33:15.499Z,6.00
2022-08-23T09:35:21.760Z,5.97
2022-08-23T09:37:24.726Z,7.13
2022-08-23T09:39:31.394Z,5.70
2022-08-23T09:41:35.968Z,4.80
2022-08-23T09:43:44.732Z,6.17
2022-08-23T09:45:59.715Z,5.47
2022-08-23T09:48:01.534Z,7.33
2022-08-23T09:50:23.557Z,5.83
2022-08-23T09:52:33.631Z,5.10
2022-08-23T09:54:37.067Z,8.33
2022-08-23T09:56:41.414Z,10.80
2022-08-23T09:58:44.653Z,4.90
2022-08-23T10:01:01.965Z,6.67
2022-08-23T10:03:22.184Z,6.50
2022-08-23T10:05:36.982Z,5.47
2022-08-23T10:07:42.573Z,5.40
2022-08-23T10:09:44.598Z,7.60
2022-08-23T10:11:46.220Z,5.47
2022-08-23T10:13:47.923Z,4.60
2022-08-23T10:16:00.214Z,6.00
2022-08-23T10:18:07.831Z,5.20
2022-08-23T10:20:22.290Z,5.80
2022-08-23T10:22:27.418Z,5.63
2022-08-23T10:24:44.747Z,6.53
2022-08-23T10:27:07.740Z,5.80
2022-08-23T10:29:16.139Z,7.50
2022-08-23T10:31:31.424Z,8.27
2022-08-23T10:33:40.397Z,4.70
2022-08-23T10:35:49.337Z,5.37
2022-08-23T10:38:03.833Z,5.30
2022-08-23T10:40:15.215Z,6.17
2022-08-23T10:42:24.743Z,4.60
2022-08-23T10:44:34.120Z,5.10
2022-08-23T10:46:42.601Z,6.50
2022-08-23T10:48:50.407Z,5.27
2022-08-23T10:50:55.879Z,5.43
2022-08-23T10:53:05.261Z,7.63
2022-08-23T10:55:14.806Z,4.70
2022-08-23T10:57:18.835Z,4.57
2022-08-23T10:59:25.288Z,4.30
2022-08-23T11:01:37.576Z,6.00
2022-08-23T11:03:43.973Z,6.17
2022-08-23T11:06:35.386Z,4.27
2022-08-23T11:08:40.954Z,6.50
2022-08-23T11:10:53.789Z,3.87
2022-08-23T11:13:01.427Z,4.63
2022-08-23T11:15:25.331Z,5.70
2022-08-23T11:17:29.732Z,4.97
2022-08-23T11:19:49.484Z,4.47
2022-08-23T11:21:51.100Z,5.17
2022-08-23T11:24:15.684Z,4.70
2022-08-23T11:27:05.953Z,5.13
2022-08-23T11:29:29.483Z,4.73
2022-08-23T11:31:34.716Z,5.80
2022-08-23T11:33:44.631Z,4.73
2022-08-23T11:35:49.821Z,4.30
2022-08-23T11:37:55.707Z,4.03
2022-08-23T11:40:11.100Z,5.30
2022-08-23T11:42:19.228Z,3.83
2022-08-23T11:44:33.533Z,3.70
2022-08-23T11:46:57.410Z,4.00
2022-08-23T11:49:16.298Z,5.27
2022-08-23T11:51:27.240Z,4.67
2022-08-23T11:53:57.780Z,4.20
2022-08-23T11:56:28.471Z,4.33
2022-08-23T11:58:45.047Z,4.40
2022-08-23T12:01:07.793Z,3.83
2022-08-23T12:03:23.106Z,4.93
2022-08-23T12:05:41.283Z,4.57
2022-08-23T12:07:45.950Z,4.97
2022-08-23T12:09:54.978Z,4.80
2022-08-23T12:12:24.796Z,4.30
2022-08-23T12:14:36.100Z,4.93
2022-08-23T12:16:44.141Z,4.60
2022-08-23T12:18:54.478Z,4.93
2022-08-23T12:20:58.866Z,5.23
2022-08-23T12:23:07.248Z,4.47
2022-08-23T12:25:08.931Z,4.53
2022-08-23T12:27:28.396Z,3.80
2022-08-23T12:29:48.771Z,4.90
2022-08-23T12:32:00.406Z,3.90
2022-08-23T12:34:15.550Z,3.70
2022-08-23T12:36:24.379Z,6.00
2022-08-23T12:38:48.970Z,3.57
2022-08-23T12:40:54.443Z,6.53
2022-08-23T12:43:04.360Z,4.13
2022-08-23T12:45:11.615Z,4.17
2022-08-23T12:47:18.495Z,4.17
2022-08-23T12:49:29.425Z,5.73
2022-08-23T12:51:31.266Z,5.70
2022-08-23T12:53:36.066Z,4.13
2022-08-23T12:55:41.004Z,3.97
2022-08-23T12:57:51.843Z,3.77
2022-08-23T13:00:17.199Z,3.90
2022-08-23T13:02:26.144Z,4.53
2022-08-23T13:04:28.243Z,3.83
2022-08-23T13:06:34.629Z,6.00
2022-08-23T13:08:41.087Z,4.80
2022-08-23T13:10:44.495Z,5.07
2022-08-23T13:12:46.378Z,4.53
2022-08-23T13:14:50.306Z,5.90
2022-08-23T13:16:54.915Z,4.87
2022-08-23T13:19:14.553Z,5.50
2022-08-23T13:21:28.196Z,4.87
2022-08-23T13:23:29.821Z,4.53
2022-08-23T13:25:33.926Z,3.63
2022-08-23T13:27:49.615Z,4.20
2022-08-23T13:29:57.896Z,6.70
2022-08-23T13:32:03.192Z,4.43
2022-08-23T13:34:07.220Z,3.73
2022-08-23T13:36:14.666Z,4.93
2022-08-23T13:38:22.266Z,4.37
2022-08-23T13:40:27.126Z,3.50
2022-08-23T13:42:34.499Z,5.50
2022-08-23T13:44:36.284Z,3.97
2022-08-23T13:46:45.495Z,7.20
2022-08-23T13:48:50.579Z,4.17
2022-08-23T13:50:54.216Z,3.80
2022-08-23T13:53:15.248Z,5.70
2022-08-23T13:55:17.248Z,6.50
2022-08-23T13:57:19.090Z,4.03
2022-08-23T13:59:31.159Z,3.90
2022-08-23T14:01:33.713Z,5.13
2022-08-23T14:03:35.346Z,3.80
2022-08-23T14:05:37.022Z,3.70
2022-08-23T14:07:39.979Z,5.33
2022-08-23T14:09:42.334Z,4.27
2022-08-23T14:11:44.915Z,3.70
2022-08-23T14:13:48.475Z,3.80
2022-08-23T14:15:58.820Z,4.50
2022-08-23T14:18:12.584Z,5.20
2022-08-23T14:22:37.452Z,3.50
2022-08-23T14:24:40.869Z,4.53
2022-08-23T14:26:51.714Z,3.90
2022-08-23T14:28:57.001Z,3.50
2022-08-23T14:30:58.780Z,3.63
2022-08-23T14:33:00.783Z,4.20
2022-08-23T14:35:02.535Z,3.70
2022-08-23T14:39:26.214Z,5.17
2022-08-23T14:41:30.616Z,4.07
2022-08-23T14:43:32.441Z,7.80
2022-08-23T14:45:34.075Z,4.23
2022-08-23T14:47:35.937Z,8.33
2022-08-23T14:49:38.608Z,4.13
2022-08-23T14:51:43.394Z,5.10
2022-08-23T14:53:46.503Z,3.93
2022-08-23T14:55:48.358Z,4.30
2022-08-23T14:57:51.488Z,4.60
2022-08-23T14:59:53.133Z,5.27
2022-08-23T15:01:56.336Z,4.30
2022-08-23T15:03:58.017Z,4.77
2022-08-23T15:05:59.708Z,5.20
2022-08-23T15:08:01.417Z,5.50
2022-08-23T15:10:04.574Z,4.10
2022-08-23T15:12:58.367Z,4.13
2022-08-23T15:14:30.227Z,4.00
2022-08-23T15:16:32.174Z,4.13
2022-08-23T15:18:34.976Z,3.77
2022-08-23T15:20:38.418Z,3.77
2022-08-23T15:22:44.312Z,4.40
2022-08-23T15:24:46.300Z,4.00
2022-08-23T15:26:48.096Z,5.60
2022-08-23T15:28:50.103Z,4.00
2022-08-23T15:30:53.267Z,4.50
2022-08-23T15:32:56.890Z,3.70
2022-08-23T15:34:58.575Z,4.53
2022-08-23T15:37:01.166Z,4.80
2022-08-23T15:39:02.978Z,4.90
2022-08-23T15:41:05.910Z,4.17
2022-08-23T15:43:07.791Z,5.20
2022-08-23T15:45:10.449Z,9.80
2022-08-23T15:47:19.950Z,5.30
2022-08-23T15:49:23.669Z,3.80
2022-08-23T15:51:25.576Z,5.77
2022-08-23T15:53:27.285Z,3.23
2022-08-23T15:55:31.823Z,4.13
2022-08-23T15:57:41.000Z,3.13
2022-08-23T15:59:42.745Z,4.40
2022-08-23T16:01:44.586Z,4.07
2022-08-23T16:03:47.848Z,4.73
2022-08-23T16:05:52.239Z,3.00
2022-08-23T16:07:56.731Z,3.43
2022-08-23T16:10:01.205Z,4.80
2022-08-23T16:12:04.823Z,3.67
2022-08-23T16:14:06.446Z,4.63
2022-08-23T16:16:14.575Z,3.93
2022-08-23T16:18:16.606Z,3.23
2022-08-23T16:20:19.663Z,4.10
2022-08-23T16:22:21.362Z,3.60
2022-08-23T16:24:24.694Z,5.30
2022-08-23T16:26:34.685Z,4.40
2022-08-23T16:28:37.235Z,3.53
2022-08-23T16:30:39.125Z,4.90
2022-08-23T16:32:41.075Z,6.23
2022-08-23T16:34:42.770Z,5.60
2022-08-23T16:36:51.677Z,4.77
2022-08-23T16:38:54.786Z,5.47
2022-08-23T16:40:56.781Z,6.50
2022-08-23T16:42:58.748Z,4.90
2022-08-23T16:45:00.564Z,6.47
2022-08-23T16:47:03.466Z,6.57
2022-08-23T16:49:05.127Z,6.77
2022-08-23T16:51:06.766Z,8.00
2022-08-23T16:53:09.998Z,6.13
2022-08-23T16:55:12.549Z,6.90
2022-08-23T16:57:14.147Z,6.50
2022-08-23T16:59:15.787Z,6.60
2022-08-23T17:01:18.781Z,6.87
2022-08-23T17:03:20.631Z,5.63
2022-08-23T17:05:22.324Z,5.60
2022-08-23T17:07:24.254Z,5.50
2022-08-23T17:09:28.709Z,5.17
2022-08-23T17:11:32.989Z,5.90
2022-08-23T17:13:34.644Z,6.00
2022-08-23T17:15:36.904Z,5.10
2022-08-23T17:17:38.575Z,5.17
2022-08-23T17:19:41.904Z,5.10
2022-08-23T17:21:43.627Z,5.07
2022-08-23T17:23:45.332Z,4.50
2022-08-23T17:25:48.451Z,4.57
2022-08-23T17:27:53.276Z,5.10
2022-08-23T17:29:54.892Z,5.30
2022-08-23T17:31:56.539Z,4.57
2022-08-23T17:33:58.289Z,5.20
2022-08-23T17:36:00.035Z,4.70
2022-08-23T17:38:02.563Z,4.87
2022-08-23T17:40:10.904Z,4.37
2022-08-23T17:42:16.452Z,4.57
2022-08-23T17:44:20.489Z,5.40
2022-08-23T17:46:22.259Z,4.30
2022-08-23T17:48:23.961Z,4.53
2022-08-23T17:50:25.849Z,4.50
2022-08-23T17:52:27.692Z,4.60
2022-08-23T17:54:29.653Z,4.17
2022-08-23T17:56:32.153Z,4.77
2022-08-23T17:58:35.140Z,5.20
2022-08-23T18:00:37.982Z,4.33
2022-08-23T18:02:39.815Z,4.97
2022-08-23T18:04:41.558Z,4.60
2022-08-23T18:06:43.269Z,3.93
2022-08-23T18:08:45.537Z,3.87
2022-08-23T18:10:47.226Z,6.97
2022-08-23T18:12:49.087Z,5.63
2022-08-23T18:14:52.015Z,4.83
2022-08-23T18:16:54.088Z,4.30
2022-08-23T18:18:56.629Z,6.10
2022-08-23T18:20:58.445Z,7.80
2022-08-23T18:23:00.100Z,8.10
2022-08-23T18:25:01.709Z,5.20
2022-08-23T18:27:03.452Z,10.33
2022-08-23T18:29:07.207Z,11.13
2022-08-23T18:31:15.540Z,11.03
2022-08-23T18:33:18.966Z,11.13
2022-08-23T18:35:21.330Z,10.20
2022-08-23T18:37:22.931Z,11.90
2022-08-23T18:39:31.909Z,13.70
2022-08-23T18:41:34.544Z,10.47
2022-08-23T18:43:37.317Z,13.47
2022-08-23T18:45:39.551Z,13.50
2022-08-23T18:47:42.757Z,9.20
2022-08-23T18:49:44.414Z,9.50
2022-08-23T18:51:46.133Z,9.50
2022-08-23T18:53:47.883Z,33.57
2022-08-23T18:55:49.944Z,42.63
2022-08-23T18:57:51.552Z,21.23
2022-08-23T18:59:53.159Z,23.00
2022-08-23T19:01:55.106Z,50.73
2022-08-23T19:04:00.753Z,39.27
2022-08-23T19:06:02.531Z,65.23
2022-08-23T19:08:05.104Z,45.47
2022-08-23T19:10:07.904Z,52.87
2022-08-23T19:12:09.625Z,53.20
2022-08-23T19:14:11.475Z,30.30
2022-08-23T19:16:14.572Z,53.57
2022-08-23T19:18:16.197Z,40.87
2022-08-23T19:20:20.258Z,33.43
2022-08-23T19:22:21.842Z,24.63
2022-08-23T19:24:23.628Z,24.60
2022-08-23T19:26:27.877Z,16.03
2022-08-23T19:28:29.545Z,23.90
2022-08-23T19:30:31.409Z,22.97
2022-08-23T19:32:35.006Z,30.30
2022-08-23T19:34:36.655Z,41.40
2022-08-23T19:36:49.282Z,32.47
2022-08-23T19:38:58.265Z,15.87
2022-08-23T19:41:02.140Z,7.97
2022-08-23T19:43:04.103Z,13.43
2022-08-23T19:45:08.334Z,7.20
2022-08-23T19:47:19.375Z,8.17
2022-08-23T19:49:21.626Z,6.73
2022-08-23T19:51:23.278Z,9.27
2022-08-23T19:53:29.061Z,7.20
2022-08-23T19:55:30.706Z,6.67
2022-08-23T19:57:33.154Z,7.30
2022-08-23T19:59:37.685Z,6.00
2022-08-23T20:01:40.171Z,4.77
2022-08-23T20:03:41.907Z,5.83
2022-08-23T20:05:43.508Z,4.73
2022-08-23T20:07:46.013Z,5.30
2022-08-23T20:09:49.159Z,5.03
2022-08-23T20:11:52.079Z,5.40
2022-08-23T20:13:54.005Z,5.60
2022-08-23T20:15:56.420Z,5.03
2022-08-23T20:17:58.193Z,4.93
2022-08-23T20:19:59.848Z,15.53
2022-08-23T20:22:01.651Z,14.27
2022-08-23T20:24:04.373Z,16.87
2022-08-23T20:26:07.502Z,7.83
2022-08-23T20:28:11.004Z,14.13
2022-08-23T20:30:14.286Z,14.20
2022-08-23T20:32:15.903Z,10.80
2022-08-23T20:34:17.566Z,6.23
2022-08-23T20:36:19.667Z,6.50
2022-08-23T20:38:32.102Z,4.80
2022-08-23T20:40:35.753Z,4.60
2022-08-23T20:42:39.114Z,5.40
2022-08-23T20:44:40.749Z,7.23
2022-08-23T20:46:43.028Z,5.27
2022-08-23T20:48:44.866Z,7.70
2022-08-23T20:50:46.606Z,4.60
2022-08-23T20:52:48.282Z,4.40
2022-08-23T20:54:49.877Z,4.70
2022-08-23T20:56:52.734Z,4.40
2022-08-23T20:58:56.471Z,5.20
2022-08-23T21:00:58.608Z,4.50
2022-08-23T21:03:00.392Z,4.87
2022-08-23T21:05:02.055Z,5.27
2022-08-23T21:07:07.925Z,4.63
2022-08-23T21:09:10.767Z,5.17
2022-08-23T21:11:12.856Z,4.03
2022-08-23T21:13:14.497Z,7.63
2022-08-23T21:15:17.548Z,5.60
2022-08-23T21:17:19.327Z,4.13
2022-08-23T21:19:20.959Z,4.07
2022-08-23T21:21:24.643Z,4.83
2022-08-23T21:23:26.710Z,4.57
2022-08-23T21:25:28.379Z,5.77
2022-08-23T21:27:30.024Z,4.73
2022-08-23T21:29:31.604Z,6.20
2022-08-23T21:31:34.980Z,5.40
2022-08-23T21:33:40.181Z,7.40
2022-08-23T21:35:42.207Z,5.57
2022-08-23T21:37:43.925Z,6.03
2022-08-23T21:39:46.452Z,5.30
2022-08-23T21:41:48.583Z,4.10
2022-08-23T21:43:50.550Z,7.97
2022-08-23T21:45:52.285Z,4.50
2022-08-23T21:47:55.393Z,3.93
2022-08-23T21:49:57.258Z,5.37
2022-08-23T21:51:58.853Z,10.60
2022-08-23T21:54:00.669Z,6.30
2022-08-23T21:56:02.423Z,4.07
2022-08-23T21:58:04.018Z,21.37
2022-08-23T22:00:08.288Z,4.80
2022-08-23T22:02:09.953Z,5.97
2022-08-23T22:04:15.268Z,4.63
2022-08-23T22:06:17.514Z,6.53
2022-08-23T22:08:19.163Z,5.87
2022-08-23T22:10:22.062Z,3.60
2022-08-23T22:12:25.094Z,4.27
2022-08-23T22:14:31.254Z,6.53
2022-08-23T22:16:33.168Z,5.47
2022-08-23T22:18:35.136Z,7.73
2022-08-23T22:20:38.180Z,5.73
2022-08-23T22:22:40.136Z,5.93
2022-08-23T22:24:41.814Z,5.20
2022-08-23T22:26:44.520Z,5.13
2022-08-23T22:28:46.803Z,7.63
2022-08-23T22:30:48.548Z,4.30
2022-08-23T22:32:50.149Z,5.73
2022-08-23T22:34:51.926Z,4.57
2022-08-23T22:36:54.938Z,8.00
2022-08-23T22:38:56.706Z,4.53
2022-08-23T22:40:58.415Z,4.53
2022-08-23T22:43:00.313Z,6.03
2022-08-23T22:45:03.103Z,4.63
2022-08-23T22:47:04.998Z,5.60
2022-08-23T22:49:07.105Z,5.87
2022-08-23T22:51:11.539Z,6.77
2022-08-23T22:53:15.472Z,5.57
2022-08-23T22:55:17.275Z,4.17
2022-08-23T22:57:19.045Z,5.63
2022-08-23T22:59:27.674Z,6.73
2022-08-23T23:01:47.726Z,4.67
2022-08-23T23:03:51.443Z,5.50
2022-08-23T23:05:54.002Z,5.13
2022-08-23T23:07:55.568Z,5.23
2022-08-23T23:09:58.619Z,5.70
2022-08-23T23:12:00.220Z,5.97
2022-08-23T23:14:02.504Z,5.20
2022-08-23T23:16:06.976Z,4.63
2022-08-23T23:18:08.550Z,4.67
2022-08-23T23:20:11.043Z,6.00
2022-08-23T23:22:12.649Z,5.00
2022-08-23T23:24:16.842Z,5.90
2022-08-23T23:26:19.815Z,6.30
2022-08-23T23:28:22.007Z,7.73
2022-08-23T23:30:23.598Z,6.93
2022-08-23T23:32:25.197Z,5.60
2022-08-23T23:34:27.344Z,5.63
2022-08-23T23:36:29.136Z,5.93
2022-08-23T23:38:30.764Z,5.63
2022-08-23T23:40:33.037Z,5.20
2022-08-23T23:42:38.478Z,5.67
2022-08-23T23:44:40.194Z,5.10
2022-08-23T23:46:45.310Z,5.27
2022-08-23T23:48:51.490Z,5.33
2022-08-23T23:50:53.097Z,7.00
2022-08-23T23:52:54.812Z,4.63
2022-08-23T23:54:56.460Z,8.00
2022-08-23T23:56:58.072Z,4.27
2022-08-23T23:59:00.993Z,7.20
